Fort McMurray International Airport

Airport
ICAO code: 
CYMM
IATA Code: 
YMM
Summary
ICAO Region: 
NAM
Territory: 
Location: 
Fort McMurray, Alberta
Serving: 
Regional Municipality of Wood Buffalo
Elevation: 
1211 ft
Coordinates: 
Aerial View: 
56° 38' 56.844" N, 111° 13' 47.816" W
Metar
Observation
CYMM 272000Z AUTO 24007KT 210V270 9SM CLR M03/M11 A3001 RMK SLP190
Station
Fort Mcmurray, Alta.
Date/Time
2021-11-27 20:00:00
Wind direction
240°
Wind speed
07 kts
Lowest cloud amount
n/a
Temperature
-3°C
Dew point
-11°C
Humidity
53%
Weather condition
n/a

Fort McMurray International Airport is located 13 km southeast of Fort McMurray, Alberta, Canada.

Runways

Designator Length Width Surface Rops
7/25 2287 46 ASP Yes/Yes
Airport map: 
Aerial View: 

Accidents and Serious Incidents at or in the vicinity of CYMM

SKYbrary Partners:

Safety knowledge contributed by: